createdAt,value
2023-10-29T00:02:26.816Z,96742.00
2023-10-29T00:04:57.629Z,96736.53
2023-10-29T00:07:28.158Z,96734.66
2023-10-29T00:10:01.324Z,96733.03
2023-10-29T00:12:31.905Z,96731.16
2023-10-29T00:15:02.576Z,96737.88
2023-10-29T00:17:33.339Z,96728.16
2023-10-29T00:20:07.630Z,96735.25
2023-10-29T00:22:38.299Z,96728.63
2023-10-29T00:25:12.146Z,96730.00
2023-10-29T00:27:42.748Z,96734.56
2023-10-29T00:30:14.254Z,96739.56
2023-10-29T00:32:45.017Z,96740.31
2023-10-29T00:35:15.910Z,96732.94
2023-10-29T00:37:46.731Z,96736.38
2023-10-29T00:40:20.029Z,96730.91
2023-10-29T00:42:50.738Z,96729.38
2023-10-29T00:45:21.301Z,96740.09
2023-10-29T00:47:52.602Z,96732.88
2023-10-29T00:50:23.422Z,96744.28
2023-10-29T00:52:54.204Z,96743.91
2023-10-29T00:55:24.861Z,96741.75
2023-10-29T00:57:57.306Z,96737.19
2023-10-29T01:00:28.018Z,96735.84
2023-10-29T01:02:59.862Z,96738.09
2023-10-29T01:05:32.001Z,96727.47
2023-10-29T01:08:02.776Z,96720.41
2023-10-29T01:10:36.023Z,96721.50
2023-10-29T01:13:06.686Z,96722.28
2023-10-29T01:15:37.563Z,96722.75
2023-10-29T01:18:08.408Z,96716.44
2023-10-29T01:20:40.092Z,96721.75
2023-10-29T01:23:10.942Z,96730.06
2023-10-29T01:25:45.019Z,96735.16
2023-10-29T01:28:15.690Z,96725.53
2023-10-29T01:30:46.254Z,96726.31
2023-10-29T01:33:16.851Z,96717.22
2023-10-29T01:35:47.529Z,96711.94
2023-10-29T01:38:18.138Z,96699.00
2023-10-29T01:40:52.305Z,96691.91
2023-10-29T01:43:22.847Z,96663.78
2023-10-29T01:45:53.496Z,96672.31
2023-10-29T01:48:25.259Z,96673.66
2023-10-29T01:50:57.400Z,96677.41
2023-10-29T01:53:29.341Z,96676.06
2023-10-29T01:56:02.679Z,96673.84
2023-10-29T01:58:33.273Z,96662.78
2023-10-29T02:01:03.952Z,96673.09
2023-10-29T02:03:34.656Z,96668.44
2023-10-29T02:06:05.350Z,96665.34
2023-10-29T02:08:37.026Z,96670.50
2023-10-29T02:11:10.389Z,96670.63
2023-10-29T02:13:41.153Z,96657.66
2023-10-29T02:16:13.007Z,96653.13
2023-10-29T02:18:43.776Z,96651.56
2023-10-29T02:21:14.387Z,96647.81
2023-10-29T02:23:47.617Z,96643.78
2023-10-29T02:26:18.521Z,96633.25
2023-10-29T02:28:49.257Z,96621.41
2023-10-29T02:31:23.731Z,96621.84
2023-10-29T02:33:56.020Z,96618.53
2023-10-29T02:36:26.788Z,96624.25
2023-10-29T02:39:00.036Z,96630.97
2023-10-29T02:41:30.919Z,96633.34
2023-10-29T02:44:01.650Z,96628.56
2023-10-29T02:46:32.193Z,96630.63
2023-10-29T02:49:02.912Z,96633.88
2023-10-29T02:51:33.747Z,96632.41
2023-10-29T02:54:07.278Z,96629.47
2023-10-29T02:56:38.814Z,96627.75
2023-10-29T02:59:11.061Z,96627.94
2023-10-29T03:01:42.578Z,96629.47
2023-10-29T03:04:14.168Z,96630.66
2023-10-29T03:06:44.917Z,96622.06
2023-10-29T03:09:18.430Z,96622.41
2023-10-29T03:11:49.402Z,96620.69
2023-10-29T03:14:20.394Z,96617.66
2023-10-29T03:16:51.081Z,96614.19
2023-10-29T03:19:22.041Z,96618.13
2023-10-29T03:21:52.785Z,96611.78
2023-10-29T03:24:26.232Z,96610.78
2023-10-29T03:26:57.091Z,96601.06
2023-10-29T03:29:28.214Z,96615.31
2023-10-29T03:31:58.972Z,96614.16
2023-10-29T03:34:29.692Z,96614.50
2023-10-29T03:37:00.627Z,96615.44
2023-10-29T03:39:34.022Z,96612.91
2023-10-29T03:42:04.896Z,96613.06
2023-10-29T03:44:36.667Z,96614.63
2023-10-29T03:47:07.585Z,96626.25
2023-10-29T03:49:38.554Z,96617.28
2023-10-29T03:52:09.759Z,96621.31
2023-10-29T03:54:42.933Z,96618.16
2023-10-29T03:57:13.546Z,96624.59
2023-10-29T03:59:44.180Z,96629.59
2023-10-29T04:02:14.869Z,96635.56
2023-10-29T04:04:53.572Z,96633.69
2023-10-29T04:07:28.183Z,96643.00
2023-10-29T04:10:02.683Z,96642.50
2023-10-29T04:12:33.685Z,96642.38
2023-10-29T04:15:06.434Z,96643.38
2023-10-29T04:17:37.958Z,96651.91
2023-10-29T04:20:09.954Z,96640.78
2023-10-29T04:22:40.577Z,96632.06
2023-10-29T04:25:13.887Z,96618.97
2023-10-29T04:27:44.636Z,96627.63
2023-10-29T04:30:16.042Z,96628.50
2023-10-29T04:32:46.806Z,96619.53
2023-10-29T04:35:17.642Z,96613.25
2023-10-29T04:37:48.435Z,96621.47
2023-10-29T04:40:21.795Z,96612.22
2023-10-29T04:42:52.448Z,96618.41
2023-10-29T04:45:22.967Z,96607.13
2023-10-29T04:47:53.634Z,96603.09
2023-10-29T04:50:24.498Z,96600.38
2023-10-29T04:52:55.140Z,96602.22
2023-10-29T04:55:28.621Z,96597.28
2023-10-29T04:57:59.532Z,96598.22
2023-10-29T05:00:31.246Z,96600.97
2023-10-29T05:03:01.956Z,96590.81
2023-10-29T05:05:32.618Z,96585.38
2023-10-29T05:08:03.673Z,96589.28
2023-10-29T05:10:37.016Z,96579.03
2023-10-29T05:13:07.749Z,96575.00
2023-10-29T05:15:38.292Z,96576.38
2023-10-29T05:18:09.184Z,96563.94
2023-10-29T05:20:40.288Z,96566.38
2023-10-29T05:23:11.589Z,96579.81
2023-10-29T05:25:45.763Z,96583.13
2023-10-29T05:28:16.440Z,96583.06
2023-10-29T05:30:47.060Z,96571.56
2023-10-29T05:33:17.803Z,96578.34
2023-10-29T05:35:49.077Z,96579.22
2023-10-29T05:38:19.769Z,96572.47
2023-10-29T05:40:52.968Z,96571.91
2023-10-29T05:43:24.496Z,96573.13
2023-10-29T05:45:56.113Z,96583.97
2023-10-29T05:48:26.824Z,96578.88
2023-10-29T05:50:57.521Z,96578.16
2023-10-29T05:53:28.177Z,96570.69
2023-10-29T05:56:01.433Z,96577.88
2023-10-29T05:58:32.022Z,96578.13
2023-10-29T06:01:02.847Z,96581.41
2023-10-29T06:03:35.036Z,96571.09
2023-10-29T06:06:06.033Z,96576.69
2023-10-29T06:08:36.777Z,96572.63
2023-10-29T06:11:11.744Z,96581.59
2023-10-29T06:13:45.104Z,96578.47
2023-10-29T06:16:15.908Z,96575.72
2023-10-29T06:18:46.454Z,96576.69
2023-10-29T06:21:17.428Z,96576.28
2023-10-29T06:23:48.083Z,96578.69
2023-10-29T06:26:21.268Z,96578.25
2023-10-29T06:28:51.851Z,96593.19
2023-10-29T06:31:22.427Z,96600.44
2023-10-29T06:33:53.010Z,96615.00
2023-10-29T06:36:23.512Z,96628.13
2023-10-29T06:38:54.114Z,96626.22
2023-10-29T06:41:27.306Z,96627.38
2023-10-29T06:43:57.911Z,96643.84
2023-10-29T06:46:28.512Z,96651.13
2023-10-29T06:48:59.704Z,96653.44
2023-10-29T06:51:30.476Z,96651.22
2023-10-29T06:54:01.272Z,96658.69
2023-10-29T06:56:34.559Z,96671.63
2023-10-29T06:59:05.107Z,96671.84
2023-10-29T07:01:35.697Z,96679.22
2023-10-29T07:04:06.956Z,96686.66
2023-10-29T07:06:37.604Z,96683.75
2023-10-29T07:09:08.295Z,96681.75
2023-10-29T07:11:41.726Z,96682.97
2023-10-29T07:14:12.506Z,96688.56
2023-10-29T07:16:46.781Z,96683.38
2023-10-29T07:19:18.258Z,96683.94
2023-10-29T07:21:48.936Z,96694.88
2023-10-29T07:24:19.559Z,96698.13
2023-10-29T07:26:52.878Z,96705.34
2023-10-29T07:29:23.532Z,96704.28
2023-10-29T07:31:54.148Z,96698.56
2023-10-29T07:34:24.691Z,96708.22
2023-10-29T07:36:55.331Z,96710.00
2023-10-29T07:39:25.952Z,96711.47
2023-10-29T07:41:59.203Z,96717.00
2023-10-29T07:44:29.894Z,96715.50
2023-10-29T07:47:04.421Z,96701.22
2023-10-29T07:49:35.230Z,96712.34
2023-10-29T07:52:05.849Z,96710.50
2023-10-29T07:54:36.464Z,96715.00
2023-10-29T07:57:09.744Z,96708.00
2023-10-29T07:59:40.380Z,96709.94
2023-10-29T08:02:11.012Z,96710.06
2023-10-29T08:04:41.562Z,96709.22
2023-10-29T08:07:12.157Z,96714.22
2023-10-29T08:09:42.790Z,96714.81
2023-10-29T08:12:15.965Z,96720.63
2023-10-29T08:14:48.229Z,96714.66
2023-10-29T08:17:19.006Z,96712.63
2023-10-29T08:19:50.231Z,96716.19
2023-10-29T08:22:20.930Z,96727.69
2023-10-29T08:24:52.326Z,96733.44
2023-10-29T08:27:25.738Z,96735.22
2023-10-29T08:29:57.504Z,96730.25
2023-10-29T08:32:28.851Z,96734.84
2023-10-29T08:34:59.787Z,96738.63
2023-10-29T08:37:30.415Z,96746.34
2023-10-29T08:40:01.537Z,96759.16
2023-10-29T08:42:35.209Z,96762.16
2023-10-29T08:45:06.276Z,96763.56
2023-10-29T08:47:38.203Z,96775.00
2023-10-29T08:50:10.647Z,96770.56
2023-10-29T08:52:41.240Z,96770.00
2023-10-29T08:55:12.109Z,96765.72
2023-10-29T08:57:45.272Z,96765.72
2023-10-29T09:00:17.789Z,96770.38
2023-10-29T09:02:48.761Z,96770.31
2023-10-29T09:05:19.426Z,96770.81
2023-10-29T09:07:50.025Z,96755.94
2023-10-29T09:10:20.978Z,96760.31
2023-10-29T09:12:54.937Z,96756.47
2023-10-29T09:15:25.538Z,96766.75
2023-10-29T09:17:56.667Z,96744.66
2023-10-29T09:20:27.397Z,96757.50
2023-10-29T09:22:58.556Z,96745.44
2023-10-29T09:25:29.128Z,96748.28
2023-10-29T09:28:06.384Z,96750.84
2023-10-29T09:30:37.187Z,96741.06
2023-10-29T09:33:09.199Z,96728.69
2023-10-29T09:35:40.342Z,96736.41
2023-10-29T09:38:11.082Z,96739.75
2023-10-29T09:40:42.075Z,96736.41
2023-10-29T09:43:19.087Z,96730.22
2023-10-29T09:45:51.706Z,96723.56
2023-10-29T09:48:22.353Z,96718.41
2023-10-29T09:50:53.749Z,96721.03
2023-10-29T09:53:26.243Z,96710.22
2023-10-29T09:55:59.198Z,96703.75
2023-10-29T09:58:32.476Z,96706.03
2023-10-29T10:01:05.062Z,96714.72
2023-10-29T10:03:37.786Z,96707.13
2023-10-29T10:06:10.020Z,96715.78
2023-10-29T10:08:40.744Z,96711.09
2023-10-29T10:11:25.674Z,96715.59
2023-10-29T10:13:58.859Z,96704.31
2023-10-29T10:16:29.469Z,96692.94
2023-10-29T10:19:01.317Z,96694.56
2023-10-29T10:21:49.044Z,96678.00
2023-10-29T10:24:20.687Z,96680.00
2023-10-29T10:26:51.417Z,96678.69
2023-10-29T10:29:24.604Z,96671.53
2023-10-29T10:32:05.231Z,96663.16
2023-10-29T10:34:39.265Z,96654.44
2023-10-29T10:37:09.986Z,96660.50
2023-10-29T10:39:40.788Z,96653.25
2023-10-29T10:42:11.415Z,96653.81
2023-10-29T10:44:46.849Z,96652.69
2023-10-29T10:47:20.469Z,96653.72
2023-10-29T10:49:51.721Z,96654.88
2023-10-29T10:52:22.690Z,96650.97
2023-10-29T10:54:54.068Z,96649.88
2023-10-29T10:57:25.900Z,96652.19
2023-10-29T11:00:06.791Z,96650.31
2023-10-29T11:02:42.149Z,96650.44
2023-10-29T11:05:15.075Z,96656.56
2023-10-29T11:07:47.257Z,96658.44
2023-10-29T11:10:19.433Z,96661.72
2023-10-29T11:12:50.195Z,96661.81
2023-10-29T11:15:24.944Z,96660.41
2023-10-29T11:18:03.056Z,96661.28
2023-10-29T11:21:01.416Z,96658.53
2023-10-29T11:23:34.005Z,96663.78
2023-10-29T11:26:24.564Z,96665.66
2023-10-29T11:28:57.147Z,96655.47
2023-10-29T11:31:30.489Z,96640.72
2023-10-29T11:34:31.304Z,96632.06
2023-10-29T11:37:02.196Z,96610.09
2023-10-29T11:39:33.990Z,96600.25
2023-10-29T11:42:25.558Z,96596.97
2023-10-29T11:45:43.202Z,96593.63
2023-10-29T11:48:22.806Z,96583.88
2023-10-29T11:51:24.302Z,96590.34
2023-10-29T11:53:54.900Z,96581.53
2023-10-29T11:56:30.324Z,96590.91
2023-10-29T11:59:10.423Z,96590.50
2023-10-29T12:01:41.801Z,96582.19
2023-10-29T12:04:16.121Z,96583.31
2023-10-29T12:06:48.078Z,96580.84
2023-10-29T12:09:19.747Z,96586.34
2023-10-29T12:11:50.669Z,96577.22
2023-10-29T12:14:42.459Z,96578.69
2023-10-29T12:17:13.768Z,96577.59
2023-10-29T12:19:48.854Z,96584.50
2023-10-29T12:22:22.996Z,96585.47
2023-10-29T12:24:56.626Z,96582.56
2023-10-29T12:27:28.202Z,96589.25
2023-10-29T12:29:58.683Z,96587.84
2023-10-29T12:32:30.801Z,96591.03
2023-10-29T12:35:03.911Z,96591.41
2023-10-29T12:37:34.822Z,96591.41
2023-10-29T12:40:06.723Z,96587.69
2023-10-29T12:42:55.375Z,96593.28
2023-10-29T12:45:28.636Z,96600.91
2023-10-29T12:48:16.465Z,96594.66
2023-10-29T12:50:57.159Z,96588.88
2023-10-29T12:53:29.110Z,96579.97
2023-10-29T12:56:01.716Z,96579.22
2023-10-29T12:58:32.785Z,96574.34
2023-10-29T13:01:03.863Z,96565.28
2023-10-29T13:03:34.359Z,96547.09
2023-10-29T13:06:08.133Z,96534.75
2023-10-29T13:08:40.620Z,96525.81
2023-10-29T13:11:11.585Z,96528.81
2023-10-29T13:13:42.074Z,96522.41
2023-10-29T13:16:12.782Z,96519.56
2023-10-29T13:18:43.071Z,96514.44
2023-10-29T13:21:16.156Z,96511.72
2023-10-29T13:23:46.435Z,96509.53
2023-10-29T13:26:16.797Z,96502.53
2023-10-29T13:28:48.085Z,96498.84
2023-10-29T13:31:18.522Z,96501.09
2023-10-29T13:33:49.202Z,96505.25
2023-10-29T13:36:23.778Z,96515.22
2023-10-29T13:38:54.561Z,96519.78
2023-10-29T13:41:26.356Z,96530.78
2023-10-29T13:43:56.594Z,96536.09
2023-10-29T13:46:27.111Z,96522.97
2023-10-29T13:48:58.373Z,96534.28
2023-10-29T13:51:31.337Z,96532.47
2023-10-29T13:54:01.694Z,96540.31
2023-10-29T13:56:31.994Z,96536.00
2023-10-29T13:59:02.440Z,96541.63
2023-10-29T14:01:32.970Z,96546.94
2023-10-29T14:04:03.880Z,96556.44
2023-10-29T14:06:37.243Z,96554.91
2023-10-29T14:09:08.055Z,96541.75
2023-10-29T14:11:38.403Z,96533.50
2023-10-29T14:14:09.091Z,96530.69
2023-10-29T14:16:41.423Z,96529.31
2023-10-29T14:19:12.822Z,96532.13
2023-10-29T14:21:51.101Z,96531.84
2023-10-29T14:24:21.439Z,96536.72
2023-10-29T14:26:53.421Z,96520.69
2023-10-29T14:29:23.721Z,96508.44
2023-10-29T14:31:54.222Z,96505.28
2023-10-29T14:34:25.229Z,96494.31
2023-10-29T14:36:58.045Z,96493.56
2023-10-29T14:39:28.405Z,96486.44
2023-10-29T14:41:59.472Z,96494.88
2023-10-29T14:44:31.113Z,96497.34
2023-10-29T14:47:01.379Z,96485.78
2023-10-29T14:49:33.963Z,96496.00
2023-10-29T14:52:08.117Z,96489.19
2023-10-29T14:54:38.359Z,96492.25
2023-10-29T14:57:26.057Z,96487.34
2023-10-29T14:59:59.389Z,96473.66
2023-10-29T15:02:30.122Z,96474.34
2023-10-29T15:05:00.635Z,96481.53
2023-10-29T15:07:33.544Z,96479.44
2023-10-29T15:10:05.343Z,96474.72
2023-10-29T15:12:36.480Z,96477.38
2023-10-29T15:15:18.523Z,96482.88
2023-10-29T15:17:57.302Z,96489.00
2023-10-29T15:20:28.198Z,96490.69
2023-10-29T15:23:02.874Z,96492.69
2023-10-29T15:25:33.304Z,96486.91
2023-10-29T15:28:03.563Z,96486.41
2023-10-29T15:30:33.803Z,96492.34
2023-10-29T15:33:04.173Z,96485.91
2023-10-29T15:35:38.163Z,96489.81
2023-10-29T15:38:11.195Z,96493.81
2023-10-29T15:40:41.517Z,96500.84
2023-10-29T15:43:11.717Z,96502.94
2023-10-29T15:45:45.075Z,96495.38
2023-10-29T15:48:15.680Z,96485.94
2023-10-29T15:50:52.480Z,96499.16
2023-10-29T15:53:25.645Z,96488.06
2023-10-29T15:55:55.979Z,96490.97
2023-10-29T15:58:26.461Z,96493.25
2023-10-29T16:00:56.889Z,96494.63
2023-10-29T16:03:27.544Z,96501.91
2023-10-29T16:05:57.878Z,96515.44
2023-10-29T16:08:31.231Z,96519.38
2023-10-29T16:11:01.514Z,96522.75
2023-10-29T16:13:31.757Z,96529.00
2023-10-29T16:16:02.047Z,96534.47
2023-10-29T16:18:33.144Z,96526.78
2023-10-29T16:21:03.910Z,96544.09
2023-10-29T16:23:36.999Z,96557.25
2023-10-29T16:26:07.554Z,96565.28
2023-10-29T16:28:37.842Z,96563.69
2023-10-29T16:31:08.459Z,96567.59
2023-10-29T16:33:38.864Z,96572.50
2023-10-29T16:36:10.325Z,96569.72
2023-10-29T16:38:43.204Z,96562.28
2023-10-29T16:41:18.059Z,96570.81
2023-10-29T16:43:50.968Z,96570.81
2023-10-29T16:46:21.580Z,96579.09
2023-10-29T16:48:52.096Z,96577.31
2023-10-29T16:51:22.586Z,96583.53
2023-10-29T16:53:56.580Z,96581.47
2023-10-29T16:56:26.933Z,96578.16
2023-10-29T16:58:57.243Z,96582.25
2023-10-29T17:01:27.516Z,96593.06
2023-10-29T17:03:57.890Z,96601.09
2023-10-29T17:06:28.204Z,96608.59
2023-10-29T17:09:01.368Z,96617.28
2023-10-29T17:11:32.968Z,96620.34
2023-10-29T17:14:04.051Z,96631.66
2023-10-29T17:16:34.630Z,96635.81
2023-10-29T17:19:05.498Z,96656.16
2023-10-29T17:21:35.804Z,96689.38
2023-10-29T17:24:10.832Z,96743.41
2023-10-29T17:26:41.119Z,96744.16
2023-10-29T17:29:12.023Z,96756.75
2023-10-29T17:31:42.326Z,96783.63
2023-10-29T17:34:12.600Z,96784.16
2023-10-29T17:36:42.904Z,96791.16
2023-10-29T17:39:17.546Z,96792.41
2023-10-29T17:41:47.792Z,96800.66
2023-10-29T17:44:18.062Z,96820.91
2023-10-29T17:46:48.411Z,96822.66
2023-10-29T17:49:19.308Z,96850.00
2023-10-29T17:51:49.600Z,96841.66
2023-10-29T17:54:22.716Z,96850.28
2023-10-29T17:56:53.123Z,96859.69
2023-10-29T17:59:26.864Z,96854.84
2023-10-29T18:01:57.173Z,96853.16
2023-10-29T18:04:27.506Z,96856.22
2023-10-29T18:07:00.226Z,96869.44
2023-10-29T18:09:33.545Z,96860.66
2023-10-29T18:12:03.947Z,96854.22
2023-10-29T18:14:34.557Z,96869.44
2023-10-29T18:17:04.863Z,96867.69
2023-10-29T18:19:35.087Z,96875.72
2023-10-29T18:22:06.787Z,96891.19
2023-10-29T18:24:39.803Z,96869.66
2023-10-29T18:27:11.241Z,96880.03
2023-10-29T18:29:41.521Z,96884.81
2023-10-29T18:32:11.953Z,96892.03
2023-10-29T18:34:43.693Z,96909.91
2023-10-29T18:37:14.016Z,96894.91
2023-10-29T18:39:46.998Z,96897.13
2023-10-29T18:42:17.616Z,96903.81
2023-10-29T18:44:48.003Z,96912.47
2023-10-29T18:47:22.596Z,96911.50
2023-10-29T18:49:53.271Z,96907.06
2023-10-29T18:52:23.647Z,96921.72
2023-10-29T18:54:57.010Z,96919.38
2023-10-29T18:57:27.548Z,96919.16
2023-10-29T18:59:57.925Z,96917.59
2023-10-29T19:02:28.239Z,96932.81
2023-10-29T19:04:58.736Z,96938.53
2023-10-29T19:07:28.998Z,96945.13
2023-10-29T19:10:01.811Z,96976.03
2023-10-29T19:12:32.154Z,96984.81
2023-10-29T19:15:02.625Z,96972.97
2023-10-29T19:17:33.254Z,96978.47
2023-10-29T19:20:06.700Z,96979.31
2023-10-29T19:22:37.102Z,96977.97
2023-10-29T19:25:11.803Z,96981.78
2023-10-29T19:27:42.264Z,96988.88
2023-10-29T19:30:14.280Z,96989.56
2023-10-29T19:32:45.052Z,96979.88
2023-10-29T19:35:15.657Z,96968.31
2023-10-29T19:37:46.375Z,96974.66
2023-10-29T19:40:19.500Z,96974.09
2023-10-29T19:42:49.693Z,96962.16
2023-10-29T19:45:20.578Z,96957.44
2023-10-29T19:47:51.002Z,96958.53
2023-10-29T19:50:21.571Z,96970.50
2023-10-29T19:52:51.889Z,96975.66
2023-10-29T19:55:24.718Z,96970.41
2023-10-29T19:57:54.928Z,96983.66
2023-10-29T20:00:25.188Z,96974.97
2023-10-29T20:02:55.545Z,96968.31
2023-10-29T20:05:26.117Z,96964.06
2023-10-29T20:07:56.396Z,96964.19
2023-10-29T20:10:29.297Z,96963.25
2023-10-29T20:13:00.339Z,96967.13
2023-10-29T20:15:34.115Z,96971.41
2023-10-29T20:18:06.741Z,96962.03
2023-10-29T20:20:39.127Z,96979.31
2023-10-29T20:23:09.788Z,96988.06
2023-10-29T20:25:42.949Z,96989.69
2023-10-29T20:28:13.534Z,96991.34
2023-10-29T20:30:44.098Z,96996.50
2023-10-29T20:33:14.976Z,96987.38
2023-10-29T20:35:45.655Z,96994.50
2023-10-29T20:38:16.186Z,96987.97
2023-10-29T20:40:49.406Z,96998.00
2023-10-29T20:43:20.027Z,96996.97
2023-10-29T20:45:55.746Z,97003.50
2023-10-29T20:48:26.451Z,96997.13
2023-10-29T20:50:57.376Z,97004.72
2023-10-29T20:53:28.612Z,97002.25
2023-10-29T20:56:08.099Z,97006.69
2023-10-29T20:58:38.862Z,97003.19
2023-10-29T21:01:09.462Z,97006.44
2023-10-29T21:03:40.273Z,97011.09
2023-10-29T21:06:13.023Z,97007.53
2023-10-29T21:08:46.041Z,97002.72
2023-10-29T21:11:20.123Z,97003.56
2023-10-29T21:13:50.862Z,97003.28
2023-10-29T21:16:22.744Z,97003.28
2023-10-29T21:18:56.228Z,97000.28
2023-10-29T21:21:27.444Z,97004.34
2023-10-29T21:23:58.276Z,97004.03
2023-10-29T21:26:31.935Z,96999.44
2023-10-29T21:29:02.619Z,97006.03
2023-10-29T21:31:33.132Z,97011.31
2023-10-29T21:34:03.756Z,97012.13
2023-10-29T21:36:34.372Z,97007.28
2023-10-29T21:39:06.303Z,97017.69
2023-10-29T21:41:39.519Z,97006.31
2023-10-29T21:44:10.419Z,97014.44
2023-10-29T21:46:41.088Z,97007.03
2023-10-29T21:49:11.845Z,97003.28
2023-10-29T21:51:42.368Z,97012.34
2023-10-29T21:54:13.043Z,97009.69
2023-10-29T21:56:46.212Z,97006.66
2023-10-29T21:59:16.804Z,97001.75
2023-10-29T22:01:51.655Z,97006.56
2023-10-29T22:04:22.346Z,97007.91
2023-10-29T22:06:52.979Z,97014.34
2023-10-29T22:09:23.715Z,97008.78
2023-10-29T22:11:56.897Z,97011.03
2023-10-29T22:14:27.496Z,97017.78
2023-10-29T22:16:58.210Z,97013.53
2023-10-29T22:19:29.006Z,97007.78
2023-10-29T22:22:00.646Z,97000.66
2023-10-29T22:24:31.324Z,97010.88
2023-10-29T22:27:04.651Z,97018.47
2023-10-29T22:29:35.282Z,97022.03
2023-10-29T22:32:06.080Z,97018.78
2023-10-29T22:34:36.613Z,97007.88
2023-10-29T22:37:07.498Z,96999.28
2023-10-29T22:39:38.099Z,96992.09
2023-10-29T22:42:11.416Z,96987.44
2023-10-29T22:44:42.030Z,96999.41
2023-10-29T22:47:12.598Z,96995.78
2023-10-29T22:49:43.332Z,97007.16
2023-10-29T22:52:15.345Z,97000.03
2023-10-29T22:54:45.956Z,97005.91
2023-10-29T22:57:19.458Z,97012.97
2023-10-29T22:59:53.653Z,97014.66
2023-10-29T23:02:26.632Z,97015.44
2023-10-29T23:04:57.897Z,97016.41
2023-10-29T23:07:29.087Z,97014.72
2023-10-29T23:10:00.118Z,97025.09
2023-10-29T23:12:33.388Z,97018.66
2023-10-29T23:15:04.068Z,97026.13
2023-10-29T23:17:34.871Z,97022.13
2023-10-29T23:20:05.429Z,97025.25
2023-10-29T23:22:36.228Z,97027.53
2023-10-29T23:25:07.326Z,97029.13
2023-10-29T23:27:40.711Z,97026.38
2023-10-29T23:30:12.259Z,97024.25
2023-10-29T23:32:43.183Z,97030.03
2023-10-29T23:35:13.901Z,97037.59
2023-10-29T23:37:44.847Z,97034.06
2023-10-29T23:40:16.794Z,97041.31
2023-10-29T23:42:50.302Z,97041.31
2023-10-29T23:45:21.029Z,97050.75
2023-10-29T23:47:51.792Z,97045.19
2023-10-29T23:50:22.429Z,97044.97
2023-10-29T23:52:53.095Z,97043.41
2023-10-29T23:55:23.717Z,97051.06
2023-10-29T23:57:57.071Z,97057.63
